createdAt,value
2022-09-02T13:49:45.306Z,100852.47
2022-09-02T13:52:54.849Z,100849.88
2022-09-02T13:55:16.811Z,100852.22
2022-09-02T13:57:53.648Z,100846.88
2022-09-02T14:00:36.830Z,100864.28
2022-09-02T14:03:09.371Z,100865.44
2022-09-02T14:05:47.422Z,100874.41
2022-09-02T14:08:31.565Z,100869.88
2022-09-02T14:11:08.358Z,100876.44
2022-09-02T14:13:50.124Z,100886.84
2022-09-02T14:16:37.864Z,100884.56
2022-09-02T14:19:18.818Z,100893.34
2022-09-02T14:21:52.093Z,100901.00
2022-09-02T14:24:31.155Z,100902.78
2022-09-02T14:27:02.812Z,100907.00
2022-09-02T14:29:34.396Z,100910.78
2022-09-02T14:32:17.453Z,100914.97
2022-09-02T14:34:50.277Z,100907.81
2022-09-02T14:37:27.008Z,100919.69
2022-09-02T14:40:02.890Z,100914.16
2022-09-02T14:42:33.812Z,100926.50
2022-09-02T14:45:07.630Z,100922.94
2022-09-02T14:47:41.720Z,100932.88
2022-09-02T14:50:20.891Z,100923.13
2022-09-02T14:52:54.749Z,100930.22
2022-09-02T14:56:02.604Z,100939.31
2022-09-02T14:58:32.715Z,100939.41
2022-09-02T15:01:04.682Z,100932.44
2022-09-02T15:03:40.444Z,100931.38
2022-09-02T15:06:14.979Z,100930.09
2022-09-02T15:08:45.673Z,100924.09
2022-09-02T15:11:21.220Z,100925.72
2022-09-02T15:13:51.436Z,100920.34
2022-09-02T15:16:22.417Z,100924.41
2022-09-02T15:18:52.576Z,100926.72
2022-09-02T15:21:23.237Z,100934.50
2022-09-02T15:23:53.516Z,100925.56
2022-09-02T15:26:23.758Z,100915.78
2022-09-02T15:28:54.451Z,100903.28
2022-09-02T15:31:24.910Z,100915.16
2022-09-02T15:33:55.269Z,100908.19
2022-09-02T15:36:27.723Z,100905.25
2022-09-02T15:38:58.525Z,100906.06
2022-09-02T15:41:29.594Z,100903.28
2022-09-02T15:44:01.988Z,100896.97
2022-09-02T15:46:34.539Z,100896.13
2022-09-02T15:49:10.668Z,100895.00
2022-09-02T15:51:42.163Z,100888.19
2022-09-02T15:54:16.331Z,100892.56
2022-09-02T15:56:48.949Z,100892.88
2022-09-02T15:59:23.249Z,100889.81
2022-09-02T16:01:57.469Z,100892.88
2022-09-02T16:04:29.517Z,100894.34
2022-09-02T16:06:59.924Z,100888.19
2022-09-02T16:09:31.388Z,100892.88
2022-09-02T16:12:01.531Z,100891.25
2022-09-02T16:14:31.672Z,100884.94
2022-09-02T16:17:01.803Z,100896.78
2022-09-02T16:19:32.182Z,100896.31
2022-09-02T16:22:02.508Z,100894.66
2022-09-02T16:24:32.613Z,100897.09
2022-09-02T16:27:03.794Z,100902.94
2022-09-02T16:29:35.173Z,100895.97
2022-09-02T16:32:24.344Z,100891.91
2022-09-02T16:34:57.903Z,100888.81
2022-09-02T16:37:28.094Z,100895.47
2022-09-02T16:39:58.195Z,100888.03
2022-09-02T16:42:28.488Z,100882.50
2022-09-02T16:44:58.671Z,100883.13
2022-09-02T16:47:29.293Z,100881.66
2022-09-02T16:49:59.503Z,100881.66
2022-09-02T16:52:29.727Z,100878.41
2022-09-02T16:55:21.806Z,100877.91
2022-09-02T16:57:51.963Z,100879.88
2022-09-02T17:00:22.047Z,100881.50
2022-09-02T17:02:52.376Z,100890.09
2022-09-02T17:05:22.548Z,100875.16
2022-09-02T17:07:54.245Z,100869.97
2022-09-02T17:10:24.452Z,100865.72
2022-09-02T17:12:57.468Z,100861.34
2022-09-02T17:15:28.270Z,100856.16
2022-09-02T17:17:58.900Z,100853.88
2022-09-02T17:20:30.118Z,100863.63
2022-09-02T17:23:19.197Z,100862.47
2022-09-02T17:25:49.395Z,100857.28
2022-09-02T17:28:19.498Z,100851.75
2022-09-02T17:30:50.228Z,100845.13
2022-09-02T17:33:20.515Z,100849.00
2022-09-02T17:36:00.704Z,100849.84
2022-09-02T17:38:30.912Z,100848.19
2022-09-02T17:41:19.617Z,100843.47
2022-09-02T17:43:49.840Z,100841.06
2022-09-02T17:46:19.931Z,100845.44
2022-09-02T17:49:15.195Z,100836.81
2022-09-02T17:51:41.942Z,100836.50
2022-09-02T17:54:13.831Z,100818.13
2022-09-02T17:57:09.778Z,100820.09
2022-09-02T18:00:10.430Z,100808.22
2022-09-02T18:03:01.296Z,100798.50
2022-09-02T18:05:57.066Z,100800.44
2022-09-02T18:08:47.617Z,100796.06
2022-09-02T18:11:20.648Z,100798.81
2022-09-02T18:14:04.677Z,100792.50
2022-09-02T18:16:44.329Z,100798.31
2022-09-02T18:19:29.354Z,100788.09
2022-09-02T18:22:00.770Z,100785.00
2022-09-02T18:25:03.381Z,100784.50
2022-09-02T18:27:39.279Z,100772.16
2022-09-02T18:30:41.029Z,100768.25
2022-09-02T18:33:32.203Z,100765.19
2022-09-02T18:36:32.149Z,100754.97
2022-09-02T18:39:14.690Z,100754.66
2022-09-02T18:41:57.163Z,100756.91
2022-09-02T18:44:55.619Z,100750.84
2022-09-02T18:47:47.484Z,100745.69
2022-09-02T18:50:49.561Z,100749.25
2022-09-02T18:53:30.227Z,100736.59
2022-09-02T18:56:07.605Z,100740.16
2022-09-02T18:58:57.508Z,100730.56
2022-09-02T19:01:29.459Z,100728.13
2022-09-02T19:04:02.890Z,100717.91
2022-09-02T19:06:38.630Z,100725.06
2022-09-02T19:09:15.899Z,100723.44
2022-09-02T19:11:46.113Z,100708.81
2022-09-02T19:14:30.975Z,100710.75
2022-09-02T19:17:01.292Z,100712.69
2022-09-02T19:19:31.290Z,100708.31
2022-09-02T19:22:13.514Z,100707.66
2022-09-02T19:25:00.215Z,100714.31
2022-09-02T19:27:37.876Z,100709.47
2022-09-02T19:30:17.423Z,100718.22
2022-09-02T19:32:53.835Z,100709.94
2022-09-02T19:35:27.216Z,100703.94
2022-09-02T19:37:58.450Z,100710.59
2022-09-02T19:40:35.039Z,100705.09
2022-09-02T19:43:07.429Z,100706.53
2022-09-02T19:45:39.566Z,100694.69
2022-09-02T19:48:13.357Z,100705.38
2022-09-02T19:50:46.692Z,100708.47
2022-09-02T19:53:32.233Z,100698.25
2022-09-02T19:56:03.530Z,100702.47
2022-09-02T19:58:33.622Z,100700.50
2022-09-02T20:01:06.500Z,100700.50
2022-09-02T20:06:23.168Z,100695.47
2022-09-02T20:08:53.932Z,100701.34
2022-09-02T20:11:24.115Z,100701.63
2022-09-02T20:13:55.257Z,100702.47
2022-09-02T20:16:28.358Z,100706.03
2022-09-02T20:18:59.518Z,100705.56
2022-09-02T20:21:45.227Z,100707.00
2022-09-02T20:24:22.888Z,100711.38
2022-09-02T20:26:52.975Z,100710.09
2022-09-02T20:29:44.276Z,100705.84
2022-09-02T20:32:36.113Z,100699.84
2022-09-02T20:35:18.045Z,100698.22
2022-09-02T20:37:54.691Z,100693.03
2022-09-02T20:40:30.458Z,100695.47
2022-09-02T20:43:11.066Z,100697.72
2022-09-02T20:45:43.790Z,100692.19
2022-09-02T20:48:30.235Z,100690.59
2022-09-02T20:51:24.850Z,100700.47
2022-09-02T20:54:01.163Z,100694.97
2022-09-02T20:56:48.797Z,100699.69
2022-09-02T20:59:53.114Z,100688.97
2022-09-02T21:02:28.903Z,100693.38
2022-09-02T21:05:08.272Z,100690.13
2022-09-02T21:07:47.596Z,100689.78
2022-09-02T21:10:31.881Z,100692.03
2022-09-02T21:13:39.034Z,100688.00
2022-09-02T21:16:19.643Z,100691.25
2022-09-02T21:19:19.725Z,100703.06
2022-09-02T21:21:56.988Z,100690.13
2022-09-02T21:24:30.591Z,100698.38
2022-09-02T21:27:09.407Z,100694.81
2022-09-02T21:29:48.780Z,100700.31
2022-09-02T21:32:43.706Z,100688.78
2022-09-02T21:35:21.205Z,100700.66
2022-09-02T21:38:00.805Z,100697.88
2022-09-02T21:41:03.258Z,100691.53
2022-09-02T21:43:39.021Z,100691.88
2022-09-02T21:46:22.775Z,100694.31
2022-09-02T21:49:05.938Z,100686.34
2022-09-02T21:51:44.383Z,100690.25
2022-09-02T21:54:29.626Z,100700.47
2022-09-02T21:57:12.722Z,100691.88
2022-09-02T21:59:42.926Z,100693.81
2022-09-02T22:02:31.413Z,100700.94
2022-09-02T22:05:26.263Z,100701.28
2022-09-02T22:08:22.428Z,100707.94
2022-09-02T22:11:26.461Z,100710.34
2022-09-02T22:14:01.947Z,100713.44
2022-09-02T22:16:47.918Z,100702.41
2022-09-02T22:19:19.167Z,100715.72
2022-09-02T22:21:57.382Z,100716.84
2022-09-02T22:24:33.266Z,100717.97
2022-09-02T22:27:13.777Z,100723.19
2022-09-02T22:29:53.192Z,100716.69
2022-09-02T22:32:28.766Z,100719.09
2022-09-02T22:35:12.824Z,100725.75
2022-09-02T22:38:01.875Z,100724.44
2022-09-02T22:40:38.867Z,100724.44
2022-09-02T22:43:14.810Z,100725.59
2022-09-02T22:46:09.416Z,100733.56
2022-09-02T22:49:03.134Z,100735.47
2022-09-02T22:52:03.059Z,100743.47
2022-09-02T22:54:34.226Z,100754.50
2022-09-02T22:57:12.747Z,100758.56
2022-09-02T23:00:01.671Z,100750.09
2022-09-02T23:02:57.754Z,100748.16
2022-09-02T23:05:54.194Z,100751.25
2022-09-02T23:08:25.179Z,100748.78
2022-09-02T23:11:13.773Z,100753.16
2022-09-02T23:13:46.964Z,100761.44
2022-09-02T23:16:39.390Z,100765.19
2022-09-02T23:19:24.312Z,100761.13
2022-09-02T23:22:07.202Z,100757.88
2022-09-02T23:24:56.364Z,100766.16
2022-09-02T23:27:53.909Z,100756.09
2022-09-02T23:30:24.280Z,100763.91
2022-09-02T23:33:08.000Z,100764.03
2022-09-02T23:35:50.481Z,100757.88
2022-09-02T23:38:49.226Z,100766.66
2022-09-02T23:41:20.697Z,100761.06
2022-09-02T23:43:51.768Z,100773.81
2022-09-02T23:46:58.745Z,100767.97
2022-09-02T23:49:57.825Z,100776.84
2022-09-02T23:52:45.401Z,100774.22
2022-09-02T23:55:40.511Z,100771.78
2022-09-02T23:58:25.741Z,100775.66
